Time;durP1;ratioP1;P1;durP2;ratioP2;P2;SDS_P1;SDS_P2;PMS_P1;PMS_P2;Temp;Humidity;BMP_temperature;BMP_pressure;BME280_temperature;BME280_humidity;BME280_pressure;Samples;Min_cycle;Max_cycle;Signal;HPM_P1;HPM_P2
2023/10/06 00:02:07;;;;;;;9.33;4.17;;;;;;;8.34;100.00;101603.50;4983245;28;20203;-74
2023/10/06 00:04:41;;;;;;;11.90;4.57;;;;;;;8.31;100.00;101613.00;4987037;28;20202;-73
2023/10/06 00:07:07;;;;;;;7.90;4.17;;;;;;;8.27;100.00;101614.63;4985036;28;20682;-73
2023/10/06 00:09:35;;;;;;;7.57;3.90;;;;;;;8.21;100.00;101613.47;4984221;28;20724;-73
2023/10/06 00:12:05;;;;;;;8.70;4.23;;;;;;;8.13;100.00;101614.03;4979607;28;20260;-75
2023/10/06 00:14:40;;;;;;;7.83;3.70;;;;;;;8.07;100.00;101621.69;4986076;28;20292;-73
2023/10/06 00:17:16;;;;;;;9.70;4.50;;;;;;;7.94;100.00;101611.44;4984865;28;20232;-74
2023/10/06 00:19:45;;;;;;;7.90;3.77;;;;;;;7.84;100.00;101615.41;4981589;28;20225;-74
2023/10/06 00:24:49;;;;;;;8.17;3.60;;;;;;;7.80;100.00;101610.84;4985346;28;20201;-73
2023/10/06 00:27:23;;;;;;;9.17;3.97;;;;;;;7.75;100.00;101616.75;4983581;28;20205;-75
2023/10/06 00:29:56;;;;;;;7.93;3.60;;;;;;;7.73;100.00;101621.97;4985267;28;20275;-74
2023/10/06 00:32:26;;;;;;;5.67;3.60;;;;;;;7.73;100.00;101621.06;4981170;28;20221;-74
2023/10/06 00:35:08;;;;;;;6.77;3.93;;;;;;;7.75;100.00;101612.38;4983989;28;20260;-73
2023/10/06 00:37:39;;;;;;;7.07;3.57;;;;;;;7.83;100.00;101616.25;4985302;28;20240;-73
2023/10/06 00:40:19;;;;;;;5.80;3.57;;;;;;;7.72;100.00;101632.44;4986485;28;20456;-73
2023/10/06 00:42:51;;;;;;;7.57;3.57;;;;;;;7.60;100.00;101624.84;4980148;28;20253;-75
2023/10/06 00:45:17;;;;;;;5.17;2.93;;;;;;;7.46;100.00;101624.25;4986607;28;20201;-73
2023/10/06 00:47:44;;;;;;;7.83;3.20;;;;;;;7.38;100.00;101622.09;4989034;28;20201;-73
2023/10/06 00:50:15;;;;;;;10.57;3.67;;;;;;;7.32;100.00;101617.44;4989174;28;20858;-74
2023/10/06 00:52:42;;;;;;;5.90;3.17;;;;;;;7.23;100.00;101612.66;4986374;28;20216;-73
2023/10/06 00:55:12;;;;;;;6.03;3.50;;;;;;;7.12;100.00;101623.50;4987740;28;20214;-73
2023/10/06 00:57:40;;;;;;;8.33;3.67;;;;;;;7.08;100.00;101616.28;4989528;28;20201;-74
2023/10/06 01:00:20;;;;;;;9.30;3.60;;;;;;;7.09;100.00;101621.63;4986143;28;20228;-75
2023/10/06 01:02:48;;;;;;;5.63;3.30;;;;;;;7.07;100.00;101607.50;4977855;28;20220;-73
2023/10/06 01:05:19;;;;;;;7.90;3.77;;;;;;;7.14;100.00;101600.75;4981973;28;20633;-74
2023/10/06 01:07:46;;;;;;;7.37;3.63;;;;;;;7.39;100.00;101608.09;4988348;28;20215;-73
2023/10/06 01:10:27;;;;;;;7.17;3.50;;;;;;;7.35;100.00;101603.50;4986294;28;20265;-73
2023/10/06 01:12:56;;;;;;;6.47;3.50;;;;;;;7.38;100.00;101603.66;4981014;28;20221;-74
2023/10/06 01:15:28;;;;;;;7.33;3.20;;;;;;;7.45;100.00;101605.72;4988491;28;20298;-73
2023/10/06 01:17:57;;;;;;;5.30;3.23;;;;;;;7.45;100.00;101603.09;4987174;28;20675;-74
2023/10/06 01:20:40;;;;;;;9.73;3.30;;;;;;;7.55;100.00;101600.03;4985239;28;20253;-74
2023/10/06 01:23:17;;;;;;;6.63;3.13;;;;;;;7.47;100.00;101610.22;4978584;28;20791;-74
2023/10/06 01:25:43;;;;;;;6.03;3.50;;;;;;;7.48;100.00;101606.75;4984294;28;20216;-74
2023/10/06 01:28:12;;;;;;;8.07;3.20;;;;;;;7.48;100.00;101605.84;4985718;28;20248;-74
2023/10/06 01:30:39;;;;;;;5.17;3.30;;;;;;;7.44;100.00;101602.19;4985908;28;20232;-75
2023/10/06 01:33:06;;;;;;;6.87;3.50;;;;;;;7.33;100.00;101610.44;4983251;28;20790;-74
2023/10/06 01:35:40;;;;;;;6.60;2.93;;;;;;;7.37;100.00;101605.38;4987288;28;20201;-73
2023/10/06 01:38:13;;;;;;;5.47;3.30;;;;;;;7.33;100.00;101611.34;4985976;28;20211;-73
2023/10/06 01:40:45;;;;;;;5.57;2.80;;;;;;;7.37;100.00;101608.00;4981904;28;20700;-74
2023/10/06 01:43:14;;;;;;;6.60;3.17;;;;;;;7.36;100.00;101608.84;4986549;28;20287;-74
2023/10/06 01:45:44;;;;;;;5.30;3.00;;;;;;;7.20;100.00;101604.63;4986884;28;20669;-75
2023/10/06 01:50:41;;;;;;;7.60;3.50;;;;;;;7.01;100.00;101616.84;4985636;28;20352;-73
2023/10/06 01:53:09;;;;;;;5.03;2.83;;;;;;;6.94;100.00;101612.13;4982705;28;20220;-74
2023/10/06 01:55:38;;;;;;;6.00;2.60;;;;;;;6.98;100.00;101604.44;4983931;28;20622;-73
2023/10/06 01:58:07;;;;;;;4.37;2.70;;;;;;;6.99;100.00;101600.06;4987786;28;20215;-73
2023/10/06 02:00:34;;;;;;;4.77;2.77;;;;;;;6.98;100.00;101609.69;4987686;28;20295;-73
2023/10/06 02:03:03;;;;;;;5.23;2.90;;;;;;;7.20;100.00;101614.22;4988106;28;20205;-73
2023/10/06 02:05:30;;;;;;;7.27;3.00;;;;;;;7.24;100.00;101608.28;4988826;28;20288;-73
2023/10/06 02:08:00;;;;;;;3.93;2.50;;;;;;;7.18;100.00;101597.44;4987632;28;20212;-74
2023/10/06 02:10:27;;;;;;;5.83;2.60;;;;;;;7.25;100.00;101591.66;4983952;28;20260;-74
2023/10/06 02:12:55;;;;;;;8.10;2.90;;;;;;;7.18;100.00;101595.72;4985423;28;20227;-74
2023/10/06 02:15:21;;;;;;;4.90;3.17;;;;;;;7.30;100.00;101591.84;4986585;28;20228;-73
2023/10/06 02:17:50;;;;;;;5.10;2.97;;;;;;;7.31;100.00;101591.03;4987593;28;20204;-73
2023/10/06 02:22:53;;;;;;;3.53;2.30;;;;;;;7.13;100.00;101594.59;4986462;28;20196;-74
2023/10/06 02:25:20;;;;;;;6.27;3.20;;;;;;;7.24;100.00;101592.47;4988347;28;20263;-74
2023/10/06 02:27:47;;;;;;;5.07;2.43;;;;;;;7.26;100.00;101592.56;4989283;28;20304;-73
2023/10/06 02:30:15;;;;;;;6.97;2.97;;;;;;;7.23;100.00;101596.84;4985774;28;20251;-74
2023/10/06 02:32:43;;;;;;;6.90;3.60;;;;;;;7.31;100.00;101604.19;4980472;28;20371;-74
2023/10/06 02:35:11;;;;;;;7.53;2.97;;;;;;;7.15;100.00;101603.47;4984433;28;20263;-74
2023/10/06 02:37:39;;;;;;;6.17;2.67;;;;;;;7.09;100.00;101597.91;4987417;28;20228;-74
2023/10/06 02:40:11;;;;;;;4.97;2.90;;;;;;;6.99;100.00;101589.53;4985230;28;20315;-74
2023/10/06 02:42:48;;;;;;;4.80;2.77;;;;;;;6.84;100.00;101590.63;4985607;28;20202;-73
2023/10/06 02:45:16;;;;;;;5.17;2.73;;;;;;;6.74;100.00;101583.09;4981808;28;20203;-74
2023/10/06 02:47:43;;;;;;;6.33;3.03;;;;;;;6.73;100.00;101589.19;4986418;28;20219;-74
2023/10/06 02:50:17;;;;;;;4.70;2.90;;;;;;;6.90;100.00;101597.91;4986908;28;20837;-74
2023/10/06 02:52:45;;;;;;;4.03;2.50;;;;;;;6.90;100.00;101595.28;4981139;28;20217;-74
2023/10/06 02:55:12;;;;;;;6.27;2.57;;;;;;;6.80;100.00;101586.00;4980629;28;20209;-75
2023/10/06 02:57:41;;;;;;;6.70;2.63;;;;;;;6.86;100.00;101578.44;4983735;28;20638;-74
2023/10/06 03:00:31;;;;;;;5.47;2.53;;;;;;;6.93;100.00;101582.25;4985536;28;20704;-74
2023/10/06 03:03:11;;;;;;;5.20;2.73;;;;;;;6.94;100.00;101585.78;4985915;28;20200;-73
2023/10/06 03:05:39;;;;;;;4.67;2.77;;;;;;;7.03;100.00;101594.09;4982679;28;20283;-73
2023/10/06 03:08:08;;;;;;;5.93;2.80;;;;;;;7.04;100.00;101590.63;4987362;28;20665;-74
2023/10/06 03:10:42;;;;;;;6.70;3.60;;;;;;;6.96;100.00;101589.38;4986762;28;20204;-71
2023/10/06 03:13:10;;;;;;;7.53;3.70;;;;;;;6.99;100.00;101579.00;4985189;28;20227;-72
2023/10/06 03:15:45;;;;;;;6.30;2.90;;;;;;;6.84;100.00;101580.09;4982137;28;20297;-73
2023/10/06 03:18:13;;;;;;;6.20;3.40;;;;;;;6.78;100.00;101577.13;4986122;28;20207;-72
2023/10/06 03:20:49;;;;;;;7.53;3.10;;;;;;;6.85;100.00;101583.63;4980155;28;20202;-72
2023/10/06 03:23:36;;;;;;;6.33;3.63;;;;;;;7.13;100.00;101580.53;4984969;28;20207;-72
2023/10/06 03:26:04;;;;;;;6.67;3.93;;;;;;;7.21;100.00;101572.16;4984229;28;20211;-72
2023/10/06 03:28:36;;;;;;;11.23;3.30;;;;;;;7.32;100.00;101571.75;4981841;28;20221;-72
2023/10/06 03:31:23;;;;;;;6.37;3.30;;;;;;;7.40;100.00;101571.25;4976135;28;20695;-72
2023/10/06 03:33:52;;;;;;;7.60;3.63;;;;;;;7.46;100.00;101573.25;4982519;28;20220;-72
2023/10/06 03:36:27;;;;;;;6.97;3.37;;;;;;;7.45;100.00;101568.81;4985988;28;20258;-72
2023/10/06 03:38:57;;;;;;;8.43;3.70;;;;;;;7.38;100.00;101566.75;4984853;28;20251;-72
2023/10/06 03:41:32;;;;;;;8.53;3.23;;;;;;;7.29;100.00;101571.59;4983399;28;20210;-72
2023/10/06 03:44:03;;;;;;;5.83;2.93;;;;;;;7.17;100.00;101571.94;4985013;28;20228;-72
2023/10/06 03:46:37;;;;;;;5.00;3.10;;;;;;;7.13;100.00;101572.63;4987902;28;20628;-72
2023/10/06 03:49:05;;;;;;;8.70;4.10;;;;;;;7.16;100.00;101573.66;4983573;28;20318;-73
2023/10/06 03:51:41;;;;;;;8.63;3.83;;;;;;;7.10;100.00;101573.38;4984852;28;20260;-72
2023/10/06 03:54:10;;;;;;;8.93;3.83;;;;;;;7.04;100.00;101572.19;4981966;28;20255;-72
2023/10/06 03:56:37;;;;;;;8.53;4.40;;;;;;;7.06;100.00;101568.81;4985199;28;20553;-72
2023/10/06 03:59:15;;;;;;;5.93;3.70;;;;;;;7.10;100.00;101569.84;4981089;28;20307;-73
2023/10/06 04:01:45;;;;;;;6.73;3.33;;;;;;;7.17;100.00;101577.19;4981113;28;20289;-72
2023/10/06 04:04:15;;;;;;;7.63;4.40;;;;;;;7.25;100.00;101580.22;4985999;28;20240;-72
2023/10/06 04:06:42;;;;;;;7.40;4.00;;;;;;;7.38;100.00;101582.56;4983401;28;20206;-72
2023/10/06 04:09:11;;;;;;;7.50;4.20;;;;;;;7.44;100.00;101577.56;4979412;28;20237;-72
2023/10/06 04:11:38;;;;;;;9.93;4.57;;;;;;;7.51;100.00;101570.00;4976484;28;20205;-72
2023/10/06 04:14:05;;;;;;;13.23;4.97;;;;;;;7.61;100.00;101567.78;4985612;28;20283;-72
2023/10/06 04:16:45;;;;;;;15.83;4.87;;;;;;;7.66;100.00;101564.53;4983681;28;20292;-72
2023/10/06 04:19:15;;;;;;;8.97;5.17;;;;;;;7.64;100.00;101574.09;4980845;28;20256;-73
2023/10/06 04:21:42;;;;;;;7.67;3.87;;;;;;;7.53;100.00;101573.59;4983744;28;20220;-72
2023/10/06 04:24:09;;;;;;;10.23;4.73;;;;;;;7.51;100.00;101585.81;4988653;28;20205;-72
2023/10/06 04:26:36;;;;;;;11.30;4.57;;;;;;;7.50;100.00;101583.09;4989586;28;20197;-72
2023/10/06 04:29:04;;;;;;;10.30;4.70;;;;;;;7.54;100.00;101580.66;4986689;28;20237;-72
2023/10/06 04:31:30;;;;;;;14.37;5.07;;;;;;;7.64;100.00;101594.28;4983780;28;20224;-72
2023/10/06 04:33:58;;;;;;;8.43;4.40;;;;;;;7.76;100.00;101585.16;4982212;28;21040;-72
2023/10/06 04:36:24;;;;;;;16.67;5.10;;;;;;;7.81;100.00;101585.38;4988755;28;20305;-72
2023/10/06 04:38:51;;;;;;;9.90;4.80;;;;;;;7.83;100.00;101579.31;4988840;28;20243;-72
2023/10/06 04:41:20;;;;;;;12.93;4.97;;;;;;;7.97;100.00;101579.91;4976671;28;20233;-73
2023/10/06 04:43:47;;;;;;;10.33;5.10;;;;;;;8.00;100.00;101587.94;4987981;28;20600;-72
2023/10/06 04:46:14;;;;;;;12.70;5.07;;;;;;;8.09;100.00;101587.47;4987649;28;20229;-72
2023/10/06 04:48:41;;;;;;;11.40;5.10;;;;;;;8.07;100.00;101576.84;4984275;28;20217;-72
2023/10/06 04:51:12;;;;;;;10.93;4.90;;;;;;;8.12;100.00;101583.22;4981836;28;20580;-73
2023/10/06 04:53:38;;;;;;;13.43;5.40;;;;;;;8.18;100.00;101569.38;4985406;28;20221;-72
2023/10/06 04:56:08;;;;;;;15.80;5.40;;;;;;;8.18;100.00;101572.00;4989599;28;20205;-72
2023/10/06 04:58:42;;;;;;;11.37;5.13;;;;;;;8.23;100.00;101570.47;4983021;28;20230;-72
2023/10/06 05:01:08;;;;;;;12.03;5.23;;;;;;;8.17;100.00;101573.75;4984485;28;20209;-72
2023/10/06 05:03:45;;;;;;;13.00;5.10;;;;;;;8.17;100.00;101570.22;4986694;28;20201;-72
2023/10/06 05:06:15;;;;;;;12.83;4.87;;;;;;;8.15;100.00;101572.78;4984955;28;20211;-73
2023/10/06 05:08:47;;;;;;;10.83;5.40;;;;;;;8.24;100.00;101577.53;4979929;28;20255;-73
2023/10/06 05:11:19;;;;;;;14.83;5.93;;;;;;;8.25;100.00;101578.44;4980896;28;20213;-74
2023/10/06 05:13:49;;;;;;;12.10;5.67;;;;;;;8.18;100.00;101574.66;4985628;28;20229;-71
2023/10/06 05:16:15;;;;;;;12.60;5.97;;;;;;;8.24;100.00;101577.53;4985739;28;20216;-72
2023/10/06 05:18:44;;;;;;;16.13;5.50;;;;;;;8.17;100.00;101580.78;4988895;28;20230;-71
2023/10/06 05:21:11;;;;;;;17.03;5.93;;;;;;;8.15;100.00;101599.19;4985975;28;20205;-72
2023/10/06 05:23:38;;;;;;;16.23;5.60;;;;;;;8.13;100.00;101592.03;4990934;28;20197;-72
2023/10/06 05:26:08;;;;;;;9.50;5.17;;;;;;;8.17;100.00;101596.59;4988195;28;20205;-73
2023/10/06 05:28:37;;;;;;;17.97;5.70;;;;;;;8.19;100.00;101594.94;4988674;28;20218;-73
2023/10/06 05:31:09;;;;;;;15.77;5.50;;;;;;;8.13;100.00;101606.13;4986703;28;20209;-72
2023/10/06 05:33:35;;;;;;;21.47;5.27;;;;;;;8.20;100.00;101598.47;4978131;28;20276;-71
2023/10/06 05:36:12;;;;;;;14.80;5.70;;;;;;;8.26;100.00;101596.09;4986129;28;20209;-73
2023/10/06 05:38:45;;;;;;;14.00;4.87;;;;;;;8.29;100.00;101602.38;4984969;28;20221;-72
2023/10/06 05:41:12;;;;;;;21.43;5.33;;;;;;;8.26;100.00;101602.25;4985194;28;20381;-72
2023/10/06 05:43:40;;;;;;;9.57;5.00;;;;;;;8.25;100.00;101597.81;4983477;28;20197;-71
2023/10/06 05:46:07;;;;;;;10.50;5.37;;;;;;;8.35;100.00;101594.75;4985220;28;20747;-71
2023/10/06 05:48:34;;;;;;;11.73;5.70;;;;;;;8.35;100.00;101588.56;4982332;28;20221;-71
2023/10/06 05:51:08;;;;;;;14.83;5.17;;;;;;;8.38;100.00;101586.97;4987516;28;20608;-72
2023/10/06 05:53:43;;;;;;;10.40;5.10;;;;;;;8.46;100.00;101577.66;4983906;28;20239;-73
2023/10/06 05:56:10;;;;;;;20.53;5.57;;;;;;;8.50;100.00;101580.41;4968149;28;20214;-73
2023/10/06 05:58:40;;;;;;;11.07;5.70;;;;;;;8.59;100.00;101579.03;4981082;28;20308;-71
2023/10/06 06:01:10;;;;;;;25.63;6.17;;;;;;;8.63;100.00;101578.31;4979066;28;20623;-71
2023/10/06 06:03:49;;;;;;;9.77;5.77;;;;;;;8.66;100.00;101586.34;4984102;28;20193;-70
2023/10/06 06:06:21;;;;;;;18.50;6.03;;;;;;;8.65;100.00;101589.84;4987883;28;20677;-71
2023/10/06 06:08:49;;;;;;;12.33;5.60;;;;;;;8.66;100.00;101593.38;4986110;28;20571;-71
2023/10/06 06:11:16;;;;;;;10.23;5.57;;;;;;;8.68;100.00;101594.34;4982966;28;20303;-69
2023/10/06 06:13:43;;;;;;;11.70;5.40;;;;;;;8.73;100.00;101604.25;4987598;28;20228;-69
2023/10/06 06:16:10;;;;;;;11.13;5.20;;;;;;;8.68;100.00;101607.53;4987254;28;20586;-72
2023/10/06 06:18:42;;;;;;;18.00;5.43;;;;;;;8.65;100.00;101621.53;4983129;28;20698;-71
2023/10/06 06:21:08;;;;;;;15.27;5.20;;;;;;;8.58;100.00;101603.63;4987952;28;20589;-70
2023/10/06 06:23:35;;;;;;;11.60;5.30;;;;;;;8.65;100.00;101615.34;4980866;28;20193;-70
2023/10/06 06:26:02;;;;;;;17.10;5.13;;;;;;;8.67;100.00;101614.56;4988287;28;20286;-72
2023/10/06 06:28:28;;;;;;;12.10;5.63;;;;;;;8.76;100.00;101604.38;4988146;28;20311;-70
2023/10/06 06:30:55;;;;;;;11.00;5.93;;;;;;;8.76;100.00;101604.38;4986664;28;20255;-71
2023/10/06 06:33:25;;;;;;;10.93;5.37;;;;;;;8.81;100.00;101606.31;4982513;28;20201;-71
2023/10/06 06:35:52;;;;;;;23.27;5.20;;;;;;;8.82;100.00;101610.75;4978633;28;20664;-71
2023/10/06 06:38:18;;;;;;;43.23;6.43;;;;;;;8.80;100.00;101615.94;4987412;28;20201;-72
2023/10/06 06:40:45;;;;;;;17.77;5.33;;;;;;;8.85;100.00;101603.84;4988960;28;20294;-70
2023/10/06 06:43:12;;;;;;;17.67;6.00;;;;;;;8.99;100.00;101609.69;4986671;28;20204;-70
2023/10/06 06:45:42;;;;;;;12.37;5.43;;;;;;;9.06;100.00;101611.72;4988432;28;20557;-71
2023/10/06 06:48:13;;;;;;;11.43;5.13;;;;;;;9.09;100.00;101611.81;4986034;28;20243;-72
2023/10/06 06:50:44;;;;;;;10.87;6.13;;;;;;;9.09;100.00;101610.09;4983639;28;20204;-71
2023/10/06 06:53:11;;;;;;;9.70;4.97;;;;;;;9.22;100.00;101608.84;4987971;28;20312;-70
2023/10/06 06:55:38;;;;;;;11.37;5.90;;;;;;;9.35;100.00;101611.09;4985721;28;20271;-71
2023/10/06 06:58:10;;;;;;;11.77;5.60;;;;;;;9.36;100.00;101610.25;4984329;28;20212;-71
2023/10/06 07:00:41;;;;;;;18.80;5.57;;;;;;;9.44;100.00;101615.81;4982090;28;20207;-73
2023/10/06 07:03:08;;;;;;;11.37;6.00;;;;;;;9.40;100.00;101619.19;4984118;28;20244;-70
2023/10/06 07:05:35;;;;;;;12.20;5.40;;;;;;;9.25;100.00;101614.25;4976224;28;20199;-72
2023/10/06 07:08:06;;;;;;;14.80;5.63;;;;;;;9.26;100.00;101617.78;4981859;28;20235;-70
2023/10/06 07:10:38;;;;;;;13.63;5.67;;;;;;;9.16;100.00;101603.28;4991199;23;20607;-70
2023/10/06 07:13:28;;;;;;;11.80;6.17;;;;;;;9.37;100.00;101619.09;4991984;28;20651;-70
2023/10/06 07:16:05;;;;;;;11.10;5.33;;;;;;;8.99;100.00;101612.31;4993138;28;20280;-74
2023/10/06 07:18:50;;;;;;;17.53;5.33;;;;;;;9.05;100.00;101623.13;4983995;28;20237;-71
2023/10/06 07:21:22;;;;;;;9.97;5.50;;;;;;;9.19;100.00;101635.13;4986211;28;20207;-70
2023/10/06 07:23:51;;;;;;;12.00;5.50;;;;;;;9.19;100.00;101628.94;4983845;28;20211;-72
2023/10/06 07:26:19;;;;;;;14.67;5.70;;;;;;;9.36;100.00;101625.22;4983198;28;20260;-72
2023/10/06 07:28:51;;;;;;;9.23;5.47;;;;;;;9.58;100.00;101627.81;4986547;28;20310;-71
2023/10/06 07:31:20;;;;;;;12.83;6.67;;;;;;;9.79;100.00;101630.34;4985453;28;20210;-72
2023/10/06 07:33:52;;;;;;;11.67;5.93;;;;;;;10.00;100.00;101628.47;4984556;28;20219;-70
2023/10/06 07:36:19;;;;;;;9.80;5.73;;;;;;;9.84;100.00;101625.22;4986928;28;20218;-71
2023/10/06 07:38:46;;;;;;;10.03;6.03;;;;;;;9.95;100.00;101630.03;4986926;28;20228;-74
2023/10/06 07:41:26;;;;;;;9.97;5.80;;;;;;;10.04;100.00;101624.22;4999386;28;20206;-70
2023/10/06 07:43:53;;;;;;;10.57;5.93;;;;;;;10.24;100.00;101632.88;4984688;28;20196;-70
2023/10/06 07:46:20;;;;;;;11.17;5.70;;;;;;;10.23;100.00;101636.34;4985646;28;20276;-72
2023/10/06 07:48:46;;;;;;;9.50;6.03;;;;;;;10.34;100.00;101642.91;4985905;28;20295;-71
2023/10/06 07:51:13;;;;;;;12.20;5.30;;;;;;;10.39;100.00;101638.66;4984591;28;20216;-71
2023/10/06 07:53:39;;;;;;;16.33;5.53;;;;;;;10.22;100.00;101640.75;4984845;28;20287;-69
2023/10/06 07:56:06;;;;;;;9.07;5.03;;;;;;;10.33;100.00;101647.31;4988271;28;20204;-72
2023/10/06 07:58:37;;;;;;;8.23;5.30;;;;;;;10.39;100.00;101645.72;4988628;28;20303;-72
2023/10/06 08:01:07;;;;;;;8.20;5.10;;;;;;;10.47;100.00;101645.16;4984283;28;20206;-70
2023/10/06 08:03:37;;;;;;;10.73;5.93;;;;;;;10.67;100.00;101641.41;4989569;28;20292;-72
2023/10/06 08:06:10;;;;;;;12.03;5.70;;;;;;;10.99;100.00;101644.22;4987808;28;20213;-71
2023/10/06 08:08:38;;;;;;;10.50;4.77;;;;;;;11.05;100.00;101636.44;4988383;28;20224;-71
2023/10/06 08:11:08;;;;;;;11.07;4.57;;;;;;;11.22;100.00;101637.88;4982521;28;20324;-72
2023/10/06 08:13:37;;;;;;;8.57;5.37;;;;;;;11.32;100.00;101631.09;4990801;28;20204;-75
2023/10/06 08:16:06;;;;;;;8.87;4.93;;;;;;;11.48;100.00;101641.31;4986839;28;20711;-74
2023/10/06 08:18:33;;;;;;;10.40;4.77;;;;;;;11.73;100.00;101636.72;4988212;28;20448;-72
2023/10/06 08:21:03;;;;;;;8.30;4.43;;;;;;;11.95;100.00;101624.97;4990705;28;20206;-75
2023/10/06 08:23:39;;;;;;;10.43;4.73;;;;;;;12.06;100.00;101634.16;4983457;28;20242;-73
2023/10/06 08:26:08;;;;;;;8.53;4.93;;;;;;;12.07;100.00;101642.16;4988995;28;20196;-79
2023/10/06 08:28:37;;;;;;;9.60;5.13;;;;;;;12.03;100.00;101636.72;4989504;28;20228;-72
2023/10/06 08:31:04;;;;;;;9.47;4.70;;;;;;;12.23;100.00;101641.69;4988434;28;20225;-76
2023/10/06 08:33:31;;;;;;;8.03;4.33;;;;;;;12.43;100.00;101636.94;4990460;28;20204;-76
2023/10/06 08:36:01;;;;;;;7.67;4.03;;;;;;;12.55;100.00;101634.56;4989475;28;20215;-72
2023/10/06 08:38:29;;;;;;;10.60;5.20;;;;;;;12.54;100.00;101635.44;4989855;28;20199;-80
2023/10/06 08:41:02;;;;;;;9.23;5.17;;;;;;;12.80;100.00;101637.81;4989210;28;20402;-72
2023/10/06 08:43:32;;;;;;;9.03;4.63;;;;;;;12.98;100.00;101638.28;4982519;28;20196;-73
2023/10/06 08:46:00;;;;;;;7.87;4.53;;;;;;;13.03;100.00;101638.38;4986570;28;20224;-75
2023/10/06 08:48:31;;;;;;;8.50;5.00;;;;;;;13.34;100.00;101634.69;4989487;28;20657;-79
2023/10/06 08:50:59;;;;;;;9.97;5.00;;;;;;;13.55;100.00;101629.81;4985846;28;20296;-82
2023/10/06 08:53:30;;;;;;;7.77;4.80;;;;;;;13.58;100.00;101621.91;4986336;28;20201;-81
2023/10/06 08:55:57;;;;;;;11.40;5.00;;;;;;;13.21;100.00;101622.91;4981489;28;20213;-84
2023/10/06 08:58:26;;;;;;;9.63;5.23;;;;;;;13.25;100.00;101619.44;4988654;28;20205;-81
2023/10/06 09:00:55;;;;;;;7.43;5.10;;;;;;;13.51;100.00;101619.97;4987621;28;20884;-82
2023/10/06 09:03:22;;;;;;;11.37;5.40;;;;;;;13.48;100.00;101612.84;4988583;28;20219;-80
2023/10/06 09:05:53;;;;;;;7.07;4.83;;;;;;;13.53;100.00;101618.25;4989130;28;20731;-81
2023/10/06 09:08:19;;;;;;;9.93;5.30;;;;;;;13.72;100.00;101608.91;4984845;28;20213;-83
2023/10/06 09:10:51;;;;;;;7.63;4.87;;;;;;;13.70;100.00;101607.97;5006059;22;20197;-68
2023/10/06 09:13:19;;;;;;;9.27;4.70;;;;;;;13.49;100.00;101603.09;5018303;28;20208;-71
2023/10/06 09:16:02;;;;;;;10.43;4.80;;;;;;;13.45;100.00;101595.91;5012487;28;20220;-70
2023/10/06 09:18:31;;;;;;;8.17;4.70;;;;;;;13.59;100.00;101602.41;5016535;28;20665;-66
2023/10/06 09:21:15;;;;;;;9.93;4.70;;;;;;;13.88;100.00;101605.66;5018457;28;20242;-68
2023/10/06 09:23:42;;;;;;;10.60;4.73;;;;;;;14.03;100.00;101605.97;4996409;28;20200;-69
2023/10/06 09:26:15;;;;;;;8.07;4.30;;;;;;;14.03;100.00;101602.41;4999312;28;20554;-73
2023/10/06 09:28:53;;;;;;;7.17;4.57;;;;;;;14.28;100.00;101596.63;4998304;28;20204;-69
2023/10/06 09:31:44;;;;;;;6.53;4.50;;;;;;;14.29;100.00;101594.88;5000545;28;20342;-68
2023/10/06 09:34:11;;;;;;;8.10;4.53;;;;;;;14.26;100.00;101581.50;4998980;28;20270;-68
2023/10/06 09:36:42;;;;;;;7.13;4.20;;;;;;;14.36;100.00;101581.66;5003971;28;20295;-71
2023/10/06 09:39:15;;;;;;;7.23;3.80;;;;;;;14.46;100.00;101581.88;5000082;28;20283;-70
2023/10/06 09:41:42;;;;;;;8.20;4.17;;;;;;;14.55;100.00;101580.25;4998555;28;20329;-69
2023/10/06 09:44:11;;;;;;;6.67;4.10;;;;;;;14.70;100.00;101585.81;4994293;28;20259;-68
2023/10/06 09:46:41;;;;;;;6.63;3.87;;;;;;;14.91;100.00;101582.59;4997461;28;20572;-68
2023/10/06 09:49:12;;;;;;;7.20;4.13;;;;;;;15.05;100.00;101577.47;4995285;28;20990;-69
2023/10/06 09:51:41;;;;;;;7.33;4.33;;;;;;;15.07;100.00;101574.81;4997684;28;20235;-68
2023/10/06 09:54:10;;;;;;;5.93;3.80;;;;;;;15.20;100.00;101574.97;4998151;28;20278;-66
2023/10/06 09:56:41;;;;;;;7.83;4.30;;;;;;;15.26;100.00;101574.19;4997070;28;20208;-69
2023/10/06 09:59:13;;;;;;;7.77;3.80;;;;;;;15.46;100.00;101559.31;5001057;28;20200;-66
2023/10/06 10:01:45;;;;;;;8.73;4.37;;;;;;;15.66;100.00;101557.81;4998555;28;20267;-70
2023/10/06 10:04:13;;;;;;;9.83;4.13;;;;;;;15.88;100.00;101563.38;4997718;28;20207;-71
2023/10/06 10:06:44;;;;;;;8.97;4.17;;;;;;;16.08;100.00;101569.84;5001827;28;20197;-66
2023/10/06 10:09:16;;;;;;;7.73;4.00;;;;;;;16.30;100.00;101565.56;5002243;28;20297;-69
2023/10/06 10:12:02;;;;;;;7.37;3.90;;;;;;;16.64;100.00;101552.47;4993323;28;20240;-69
2023/10/06 10:14:49;;;;;;;8.97;4.00;;;;;;;16.62;100.00;101555.16;4998428;28;20255;-68
2023/10/06 10:17:34;;;;;;;8.93;4.40;;;;;;;16.56;100.00;101547.97;4998490;28;20215;-68
2023/10/06 10:20:06;;;;;;;9.50;4.00;;;;;;;16.60;100.00;101536.41;4997089;28;20204;-68
2023/10/06 10:22:33;;;;;;;6.97;4.10;;;;;;;16.84;100.00;101538.41;4999746;28;20217;-68
2023/10/06 10:25:01;;;;;;;6.20;4.37;;;;;;;16.82;100.00;101536.59;4992835;28;20201;-67
2023/10/06 10:27:30;;;;;;;9.47;5.37;;;;;;;16.91;100.00;101542.00;4995711;28;20208;-66
2023/10/06 10:30:07;;;;;;;7.97;4.10;;;;;;;16.94;100.00;101546.47;4996455;28;20812;-68
2023/10/06 10:32:34;;;;;;;7.03;4.90;;;;;;;16.87;100.00;101534.84;4996971;28;20886;-70
2023/10/06 10:35:09;;;;;;;10.87;5.00;;;;;;;16.83;100.00;101538.41;4994573;28;20307;-68
2023/10/06 10:37:59;;;;;;;9.63;4.93;;;;;;;17.10;100.00;101535.84;4998796;28;20238;-69
2023/10/06 10:40:46;;;;;;;8.50;5.00;;;;;;;17.06;100.00;101528.69;4996419;28;20197;-68
2023/10/06 10:43:14;;;;;;;8.47;4.83;;;;;;;17.28;100.00;101532.38;4994673;28;20215;-67
2023/10/06 10:45:44;;;;;;;8.37;4.37;;;;;;;17.46;100.00;101520.84;4999989;28;20667;-68
2023/10/06 10:48:15;;;;;;;7.87;4.90;;;;;;;17.53;100.00;101528.00;4997980;28;20275;-68
2023/10/06 10:51:05;;;;;;;12.37;6.43;;;;;;;17.40;100.00;101527.06;4996175;28;20254;-68
2023/10/06 10:53:44;;;;;;;11.87;5.30;;;;;;;17.35;100.00;101515.44;4997970;28;20200;-70
2023/10/06 10:56:25;;;;;;;7.83;4.73;;;;;;;17.65;100.00;101520.03;4988582;28;20425;-71
2023/10/06 10:58:53;;;;;;;7.40;4.50;;;;;;;17.85;100.00;101512.94;5000821;28;20205;-72
2023/10/06 11:01:27;;;;;;;9.57;5.00;;;;;;;17.85;100.00;101512.94;5000738;28;20234;-71
2023/10/06 11:04:18;;;;;;;10.47;5.53;;;;;;;17.87;99.10;101512.03;4996716;28;20301;-73
2023/10/06 11:06:48;;;;;;;9.13;4.90;;;;;;;17.76;100.00;101507.56;4997016;28;20683;-66
2023/10/06 11:09:26;;;;;;;10.40;4.90;;;;;;;17.92;100.00;101504.91;4994052;28;20205;-69
2023/10/06 11:11:55;;;;;;;9.87;5.13;;;;;;;17.88;100.00;101504.00;4999221;28;20333;-69
2023/10/06 11:14:43;;;;;;;10.23;5.50;;;;;;;18.08;100.00;101502.25;4995765;28;20283;-72
2023/10/06 11:17:11;;;;;;;9.18;5.35;;;;;;;18.10;98.25;101496.88;4993781;28;20232;-68
2023/10/06 11:19:39;;;;;;;10.57;5.10;;;;;;;18.19;98.94;101486.16;4995360;28;20196;-73
2023/10/06 11:22:13;;;;;;;11.13;5.18;;;;;;;18.24;100.00;101487.03;5002313;28;20224;-68
2023/10/06 11:24:41;;;;;;;9.68;5.03;;;;;;;18.35;97.01;101487.91;5005295;28;20200;-70
2023/10/06 11:27:12;;;;;;;11.90;5.75;;;;;;;18.35;96.21;101482.56;4994880;28;20201;-69
2023/10/06 11:29:38;;;;;;;10.27;5.50;;;;;;;18.50;96.04;101478.09;4996523;28;20697;-72
2023/10/06 11:32:05;;;;;;;10.95;5.43;;;;;;;18.61;92.08;101471.78;4998685;28;20221;-73
2023/10/06 11:34:32;;;;;;;9.90;5.20;;;;;;;18.67;92.86;101460.19;4995972;28;20196;-70
2023/10/06 11:36:59;;;;;;;9.65;5.28;;;;;;;18.86;92.35;101461.94;4992650;28;20646;-69
2023/10/06 11:39:29;;;;;;;10.70;5.07;;;;;;;19.16;89.11;101460.00;4990355;28;20284;-71
2023/10/06 11:42:41;;;;;;;10.55;4.75;;;;;;;19.45;90.39;101459.84;4991249;28;20231;-72
2023/10/06 11:45:27;;;;;;;11.13;4.35;;;;;;;19.54;82.33;101458.03;4996243;28;20203;-69